createdAt,value
2019-02-02T00:00:54.509Z,18.69
2019-02-02T00:02:04.160Z,18.69
2019-02-02T00:03:13.367Z,18.66
2019-02-02T00:04:22.790Z,18.67
2019-02-02T00:05:31.636Z,18.7
2019-02-02T00:06:40.445Z,18.69
2019-02-02T00:07:49.378Z,18.66
2019-02-02T00:08:58.198Z,18.66
2019-02-02T00:10:07.542Z,18.65
2019-02-02T00:11:16.904Z,18.63
2019-02-02T00:12:25.718Z,18.65
2019-02-02T00:13:34.812Z,18.7
2019-02-02T00:14:45.219Z,18.69
2019-02-02T00:15:54.525Z,18.63
2019-02-02T00:17:03.598Z,18.69
2019-02-02T00:18:12.445Z,18.7
2019-02-02T00:19:21.372Z,18.66
2019-02-02T00:20:30.749Z,18.62
2019-02-02T00:21:39.835Z,18.65
2019-02-02T00:22:48.898Z,18.63
2019-02-02T00:23:57.714Z,18.66
2019-02-02T00:25:06.924Z,18.62
2019-02-02T00:26:16.278Z,18.67
2019-02-02T00:27:25.357Z,18.6
2019-02-02T00:28:45.590Z,18.55
2019-02-02T00:29:54.947Z,18.6
2019-02-02T00:31:04.054Z,18.6
2019-02-02T00:32:13.400Z,18.58
2019-02-02T00:33:22.226Z,18.57
2019-02-02T00:34:31.302Z,18.62
2019-02-02T00:35:40.675Z,18.58
2019-02-02T00:36:49.494Z,18.67
2019-02-02T00:37:58.314Z,18.69
2019-02-02T00:39:07.122Z,18.62
2019-02-02T00:40:16.217Z,18.58
2019-02-02T00:41:25.658Z,18.58
2019-02-02T00:42:34.715Z,18.58
2019-02-02T00:43:43.547Z,18.55
2019-02-02T00:44:52.630Z,18.62
2019-02-02T00:46:01.706Z,18.58
2019-02-02T00:47:10.784Z,18.63
2019-02-02T00:48:19.653Z,18.6
2019-02-02T00:49:28.576Z,18.6
2019-02-02T00:50:37.728Z,18.55
2019-02-02T00:51:47.069Z,18.57
2019-02-02T00:52:56.430Z,18.52
2019-02-02T00:54:08.300Z,18.65
2019-02-02T00:55:17.388Z,18.65
2019-02-02T00:56:26.725Z,18.58
2019-02-02T00:57:35.805Z,18.58
2019-02-02T00:58:44.874Z,18.52
2019-02-02T00:59:53.812Z,18.51
2019-02-02T01:01:02.617Z,18.58
2019-02-02T01:02:11.441Z,18.58
2019-02-02T01:03:20.539Z,18.55
2019-02-02T01:04:29.885Z,18.6
2019-02-02T01:05:38.697Z,18.58
2019-02-02T01:06:47.785Z,18.54
2019-02-02T01:07:56.879Z,18.58
2019-02-02T01:09:05.966Z,18.52
2019-02-02T01:10:14.763Z,18.55
2019-02-02T01:11:23.854Z,18.57
2019-02-02T01:12:33.187Z,18.52
2019-02-02T01:13:41.990Z,18.52
2019-02-02T01:14:51.311Z,18.58
2019-02-02T01:16:00.138Z,18.54
2019-02-02T01:17:09.059Z,18.66
2019-02-02T01:18:17.895Z,18.54
2019-02-02T01:19:27.236Z,18.51
2019-02-02T01:20:36.056Z,18.51
2019-02-02T01:21:45.417Z,18.54
2019-02-02T01:22:54.504Z,18.51
2019-02-02T01:24:03.842Z,18.48
2019-02-02T01:25:12.659Z,18.52
2019-02-02T01:26:21.480Z,18.48
2019-02-02T01:27:30.830Z,18.54
2019-02-02T01:28:39.627Z,18.44
2019-02-02T01:29:48.442Z,18.5
2019-02-02T01:30:57.285Z,18.5
2019-02-02T01:32:06.377Z,18.42
2019-02-02T01:33:15.449Z,18.48
2019-02-02T01:34:24.360Z,18.51
2019-02-02T01:35:33.738Z,18.51
2019-02-02T01:36:42.825Z,18.54
2019-02-02T01:37:51.674Z,18.5
2019-02-02T01:39:00.754Z,18.5
2019-02-02T01:40:09.889Z,18.48
2019-02-02T01:41:19.213Z,18.47
2019-02-02T01:42:28.138Z,18.52
2019-02-02T01:43:36.972Z,18.44
2019-02-02T01:44:45.789Z,18.45
2019-02-02T01:45:54.711Z,18.52
2019-02-02T01:47:03.775Z,18.44
2019-02-02T01:48:12.589Z,18.44
2019-02-02T01:49:21.668Z,18.51
2019-02-02T01:50:30.747Z,18.52
2019-02-02T01:51:40.090Z,18.5
2019-02-02T01:52:49.147Z,18.45
2019-02-02T01:53:58.222Z,18.51
2019-02-02T01:55:07.307Z,18.42
2019-02-02T01:56:17.176Z,18.5
2019-02-02T01:57:26.612Z,18.54
2019-02-02T01:58:35.697Z,18.47
2019-02-02T01:59:44.762Z,18.51
2019-02-02T02:00:53.590Z,18.5
2019-02-02T02:02:02.486Z,18.5
2019-02-02T02:03:11.427Z,18.41
2019-02-02T02:04:20.538Z,18.48
2019-02-02T02:05:29.353Z,18.39
2019-02-02T02:06:38.440Z,18.41
2019-02-02T02:07:47.545Z,18.45
2019-02-02T02:08:57.012Z,18.42
2019-02-02T02:10:06.105Z,18.44
2019-02-02T02:11:14.916Z,18.52
2019-02-02T02:12:24.021Z,18.48
2019-02-02T02:13:33.092Z,18.44
2019-02-02T02:14:42.278Z,18.48
2019-02-02T02:15:51.412Z,18.44
2019-02-02T02:17:00.737Z,18.42
2019-02-02T02:18:10.113Z,18.44
2019-02-02T02:19:19.194Z,18.37
2019-02-02T02:20:28.869Z,18.42
2019-02-02T02:21:37.971Z,18.41
2019-02-02T02:22:46.780Z,18.36
2019-02-02T02:23:55.605Z,18.42
2019-02-02T02:25:04.546Z,18.41
2019-02-02T02:26:13.371Z,18.44
2019-02-02T02:27:22.185Z,18.47
2019-02-02T02:28:32.796Z,18.39
2019-02-02T02:29:41.871Z,18.42
2019-02-02T02:30:51.951Z,18.39
2019-02-02T02:32:01.103Z,18.42
2019-02-02T02:33:10.186Z,18.37
2019-02-02T02:34:19.406Z,18.33
2019-02-02T02:35:28.757Z,18.33
2019-02-02T02:36:37.622Z,18.39
2019-02-02T02:37:46.458Z,18.36
2019-02-02T02:38:55.822Z,18.36
2019-02-02T02:40:04.876Z,18.37
2019-02-02T02:41:13.932Z,18.42
2019-02-02T02:42:22.781Z,18.41
2019-02-02T02:43:32.134Z,18.39
2019-02-02T02:44:40.959Z,18.33
2019-02-02T02:45:50.076Z,18.3
2019-02-02T02:46:59.465Z,18.33
2019-02-02T02:48:08.619Z,18.42
2019-02-02T02:49:17.420Z,18.35
2019-02-02T02:50:26.552Z,18.35
2019-02-02T02:51:36.428Z,18.39
2019-02-02T02:52:45.244Z,18.41
2019-02-02T02:53:54.540Z,18.33
2019-02-02T02:55:03.759Z,18.36
2019-02-02T02:56:12.910Z,18.3
2019-02-02T02:57:21.983Z,18.42
